sensor_id;sensor_type;location;lat;lon;timestamp;P1;durP1;ratioP1;P2;durP2;ratioP2
22603;SDS011;11469;49.024;8.246;2024-02-16T00:02:05;11.75;;;5.32;;
22603;SDS011;11469;49.024;8.246;2024-02-16T00:04:31;10.00;;;5.22;;
22603;SDS011;11469;49.024;8.246;2024-02-16T00:06:56;9.60;;;4.90;;
22603;SDS011;11469;49.024;8.246;2024-02-16T00:09:21;10.77;;;5.35;;
22603;SDS011;11469;49.024;8.246;2024-02-16T00:11:47;17.67;;;7.72;;
22603;SDS011;11469;49.024;8.246;2024-02-16T00:14:15;13.85;;;6.68;;
22603;SDS011;11469;49.024;8.246;2024-02-16T00:16:41;13.90;;;6.63;;
22603;SDS011;11469;49.024;8.246;2024-02-16T00:19:06;15.35;;;7.45;;
22603;SDS011;11469;49.024;8.246;2024-02-16T00:21:31;15.90;;;7.45;;
22603;SDS011;11469;49.024;8.246;2024-02-16T00:23:57;13.80;;;6.05;;
22603;SDS011;11469;49.024;8.246;2024-02-16T00:26:22;9.13;;;3.95;;
22603;SDS011;11469;49.024;8.246;2024-02-16T00:28:48;12.75;;;3.90;;
22603;SDS011;11469;49.024;8.246;2024-02-16T00:31:13;11.73;;;3.53;;
22603;SDS011;11469;49.024;8.246;2024-02-16T00:33:39;9.65;;;3.25;;
22603;SDS011;11469;49.024;8.246;2024-02-16T00:36:04;11.80;;;3.50;;
22603;SDS011;11469;49.024;8.246;2024-02-16T00:38:30;10.07;;;3.80;;
22603;SDS011;11469;49.024;8.246;2024-02-16T00:40:55;10.40;;;3.15;;
22603;SDS011;11469;49.024;8.246;2024-02-16T00:43:20;10.98;;;4.10;;
22603;SDS011;11469;49.024;8.246;2024-02-16T00:45:46;11.13;;;3.75;;
22603;SDS011;11469;49.024;8.246;2024-02-16T00:48:13;10.85;;;3.60;;
22603;SDS011;11469;49.024;8.246;2024-02-16T00:50:38;8.55;;;3.40;;
22603;SDS011;11469;49.024;8.246;2024-02-16T00:53:04;10.23;;;4.20;;
22603;SDS011;11469;49.024;8.246;2024-02-16T00:55:29;7.03;;;4.38;;
22603;SDS011;11469;49.024;8.246;2024-02-16T00:57:55;8.80;;;3.88;;
22603;SDS011;11469;49.024;8.246;2024-02-16T01:00:20;9.73;;;3.90;;
22603;SDS011;11469;49.024;8.246;2024-02-16T01:02:48;7.85;;;3.60;;
22603;SDS011;11469;49.024;8.246;2024-02-16T01:05:14;11.13;;;4.43;;
22603;SDS011;11469;49.024;8.246;2024-02-16T01:07:42;12.70;;;4.55;;
22603;SDS011;11469;49.024;8.246;2024-02-16T01:10:08;9.80;;;4.18;;
22603;SDS011;11469;49.024;8.246;2024-02-16T01:12:33;7.55;;;3.75;;
22603;SDS011;11469;49.024;8.246;2024-02-16T01:14:59;8.27;;;3.75;;
22603;SDS011;11469;49.024;8.246;2024-02-16T01:17:25;9.60;;;3.58;;
22603;SDS011;11469;49.024;8.246;2024-02-16T01:19:50;14.77;;;5.28;;
22603;SDS011;11469;49.024;8.246;2024-02-16T01:22:15;16.77;;;5.93;;
22603;SDS011;11469;49.024;8.246;2024-02-16T01:24:41;14.38;;;5.97;;
22603;SDS011;11469;49.024;8.246;2024-02-16T01:27:06;18.40;;;6.35;;
22603;SDS011;11469;49.024;8.246;2024-02-16T01:29:32;13.45;;;5.90;;
22603;SDS011;11469;49.024;8.246;2024-02-16T01:31:57;15.35;;;5.88;;
22603;SDS011;11469;49.024;8.246;2024-02-16T01:34:23;10.55;;;5.90;;
22603;SDS011;11469;49.024;8.246;2024-02-16T01:36:48;15.32;;;5.50;;
22603;SDS011;11469;49.024;8.246;2024-02-16T01:39:14;11.60;;;5.63;;
22603;SDS011;11469;49.024;8.246;2024-02-16T01:41:39;8.57;;;4.70;;
22603;SDS011;11469;49.024;8.246;2024-02-16T01:44:05;8.10;;;3.80;;
22603;SDS011;11469;49.024;8.246;2024-02-16T01:46:30;8.73;;;4.28;;
22603;SDS011;11469;49.024;8.246;2024-02-16T01:48:56;10.88;;;4.15;;
22603;SDS011;11469;49.024;8.246;2024-02-16T01:51:22;15.20;;;4.63;;
22603;SDS011;11469;49.024;8.246;2024-02-16T01:53:51;10.82;;;4.30;;
22603;SDS011;11469;49.024;8.246;2024-02-16T01:56:16;9.63;;;4.45;;
22603;SDS011;11469;49.024;8.246;2024-02-16T01:58:45;12.52;;;4.45;;
22603;SDS011;11469;49.024;8.246;2024-02-16T02:01:11;11.20;;;6.15;;
22603;SDS011;11469;49.024;8.246;2024-02-16T02:03:36;14.25;;;6.13;;
22603;SDS011;11469;49.024;8.246;2024-02-16T02:06:02;14.95;;;7.70;;
22603;SDS011;11469;49.024;8.246;2024-02-16T02:08:28;16.30;;;5.93;;
22603;SDS011;11469;49.024;8.246;2024-02-16T02:10:53;12.32;;;5.63;;
22603;SDS011;11469;49.024;8.246;2024-02-16T02:13:19;15.63;;;5.07;;
22603;SDS011;11469;49.024;8.246;2024-02-16T02:15:45;14.52;;;5.70;;
22603;SDS011;11469;49.024;8.246;2024-02-16T02:18:10;9.70;;;5.43;;
22603;SDS011;11469;49.024;8.246;2024-02-16T02:20:36;10.40;;;4.75;;
22603;SDS011;11469;49.024;8.246;2024-02-16T02:23:01;10.70;;;4.88;;
22603;SDS011;11469;49.024;8.246;2024-02-16T02:25:26;15.07;;;4.93;;
22603;SDS011;11469;49.024;8.246;2024-02-16T02:27:53;14.02;;;6.50;;
22603;SDS011;11469;49.024;8.246;2024-02-16T02:30:19;14.48;;;6.45;;
22603;SDS011;11469;49.024;8.246;2024-02-16T02:32:46;11.90;;;6.22;;
22603;SDS011;11469;49.024;8.246;2024-02-16T02:35:11;12.32;;;5.50;;
22603;SDS011;11469;49.024;8.246;2024-02-16T02:37:39;11.25;;;5.63;;
22603;SDS011;11469;49.024;8.246;2024-02-16T02:40:05;11.73;;;4.88;;
22603;SDS011;11469;49.024;8.246;2024-02-16T02:42:33;12.57;;;4.95;;
22603;SDS011;11469;49.024;8.246;2024-02-16T02:44:58;9.82;;;4.22;;
22603;SDS011;11469;49.024;8.246;2024-02-16T02:47:24;9.88;;;4.20;;
22603;SDS011;11469;49.024;8.246;2024-02-16T02:49:49;10.20;;;3.83;;
22603;SDS011;11469;49.024;8.246;2024-02-16T02:52:15;11.70;;;4.53;;
22603;SDS011;11469;49.024;8.246;2024-02-16T02:54:40;7.30;;;3.58;;
22603;SDS011;11469;49.024;8.246;2024-02-16T02:57:05;9.07;;;4.20;;
22603;SDS011;11469;49.024;8.246;2024-02-16T02:59:31;9.52;;;3.47;;
22603;SDS011;11469;49.024;8.246;2024-02-16T03:01:56;9.25;;;3.88;;
22603;SDS011;11469;49.024;8.246;2024-02-16T03:04:22;9.48;;;3.45;;
22603;SDS011;11469;49.024;8.246;2024-02-16T03:06:47;12.90;;;4.25;;
22603;SDS011;11469;49.024;8.246;2024-02-16T03:09:12;7.75;;;4.18;;
22603;SDS011;11469;49.024;8.246;2024-02-16T03:11:38;12.27;;;4.65;;
22603;SDS011;11469;49.024;8.246;2024-02-16T03:14:04;17.58;;;5.07;;
22603;SDS011;11469;49.024;8.246;2024-02-16T03:16:30;8.95;;;4.38;;
22603;SDS011;11469;49.024;8.246;2024-02-16T03:18:56;17.52;;;4.38;;
22603;SDS011;11469;49.024;8.246;2024-02-16T03:21:22;13.77;;;5.03;;
22603;SDS011;11469;49.024;8.246;2024-02-16T03:23:47;11.48;;;4.82;;
22603;SDS011;11469;49.024;8.246;2024-02-16T03:26:16;10.52;;;4.30;;
22603;SDS011;11469;49.024;8.246;2024-02-16T03:28:43;14.82;;;4.25;;
22603;SDS011;11469;49.024;8.246;2024-02-16T03:31:21;10.23;;;4.50;;
22603;SDS011;11469;49.024;8.246;2024-02-16T03:33:51;17.48;;;5.45;;
22603;SDS011;11469;49.024;8.246;2024-02-16T03:36:17;11.93;;;4.47;;
22603;SDS011;11469;49.024;8.246;2024-02-16T03:38:47;13.70;;;4.18;;
22603;SDS011;11469;49.024;8.246;2024-02-16T03:41:20;8.32;;;4.10;;
22603;SDS011;11469;49.024;8.246;2024-02-16T03:43:47;9.35;;;4.00;;
22603;SDS011;11469;49.024;8.246;2024-02-16T03:46:12;8.68;;;4.10;;
22603;SDS011;11469;49.024;8.246;2024-02-16T03:48:38;7.95;;;4.57;;
22603;SDS011;11469;49.024;8.246;2024-02-16T03:51:05;9.00;;;4.20;;
22603;SDS011;11469;49.024;8.246;2024-02-16T03:53:30;8.02;;;4.10;;
22603;SDS011;11469;49.024;8.246;2024-02-16T03:55:56;12.48;;;4.55;;
22603;SDS011;11469;49.024;8.246;2024-02-16T03:58:22;9.82;;;4.22;;
22603;SDS011;11469;49.024;8.246;2024-02-16T04:00:47;19.48;;;4.80;;
22603;SDS011;11469;49.024;8.246;2024-02-16T04:03:17;11.18;;;3.78;;
22603;SDS011;11469;49.024;8.246;2024-02-16T04:05:43;11.98;;;4.38;;
22603;SDS011;11469;49.024;8.246;2024-02-16T04:08:08;12.77;;;4.50;;
22603;SDS011;11469;49.024;8.246;2024-02-16T04:10:34;11.55;;;4.88;;
22603;SDS011;11469;49.024;8.246;2024-02-16T04:13:00;18.25;;;4.97;;
22603;SDS011;11469;49.024;8.246;2024-02-16T04:15:25;9.93;;;5.07;;
22603;SDS011;11469;49.024;8.246;2024-02-16T04:17:51;9.43;;;4.88;;
22603;SDS011;11469;49.024;8.246;2024-02-16T04:20:16;11.90;;;5.07;;
22603;SDS011;11469;49.024;8.246;2024-02-16T04:22:42;14.15;;;5.65;;
22603;SDS011;11469;49.024;8.246;2024-02-16T04:25:08;9.40;;;5.50;;
22603;SDS011;11469;49.024;8.246;2024-02-16T04:27:34;17.95;;;5.72;;
22603;SDS011;11469;49.024;8.246;2024-02-16T04:30:00;14.77;;;5.20;;
22603;SDS011;11469;49.024;8.246;2024-02-16T04:32:26;14.30;;;5.63;;
22603;SDS011;11469;49.024;8.246;2024-02-16T04:34:51;17.95;;;6.13;;
22603;SDS011;11469;49.024;8.246;2024-02-16T04:37:17;16.85;;;6.40;;
22603;SDS011;11469;49.024;8.246;2024-02-16T04:39:45;22.38;;;7.45;;
22603;SDS011;11469;49.024;8.246;2024-02-16T04:42:11;17.05;;;7.35;;
22603;SDS011;11469;49.024;8.246;2024-02-16T04:44:36;18.52;;;7.90;;
22603;SDS011;11469;49.024;8.246;2024-02-16T04:47:03;19.23;;;7.05;;
22603;SDS011;11469;49.024;8.246;2024-02-16T04:49:29;17.55;;;7.32;;
22603;SDS011;11469;49.024;8.246;2024-02-16T04:51:54;13.38;;;7.13;;
22603;SDS011;11469;49.024;8.246;2024-02-16T04:54:20;15.88;;;7.38;;
22603;SDS011;11469;49.024;8.246;2024-02-16T04:56:45;14.40;;;7.00;;
22603;SDS011;11469;49.024;8.246;2024-02-16T04:59:11;12.10;;;5.75;;
22603;SDS011;11469;49.024;8.246;2024-02-16T05:01:36;15.52;;;6.25;;
22603;SDS011;11469;49.024;8.246;2024-02-16T05:04:01;11.55;;;6.15;;
22603;SDS011;11469;49.024;8.246;2024-02-16T05:06:27;13.10;;;5.85;;
22603;SDS011;11469;49.024;8.246;2024-02-16T05:08:53;10.98;;;5.97;;
22603;SDS011;11469;49.024;8.246;2024-02-16T05:11:18;24.92;;;6.30;;
22603;SDS011;11469;49.024;8.246;2024-02-16T05:13:44;11.70;;;6.00;;
22603;SDS011;11469;49.024;8.246;2024-02-16T05:16:10;16.40;;;6.47;;
22603;SDS011;11469;49.024;8.246;2024-02-16T05:18:36;14.93;;;6.70;;
22603;SDS011;11469;49.024;8.246;2024-02-16T05:21:02;12.30;;;6.15;;
22603;SDS011;11469;49.024;8.246;2024-02-16T05:23:27;16.67;;;6.15;;
22603;SDS011;11469;49.024;8.246;2024-02-16T05:25:53;14.20;;;6.32;;
22603;SDS011;11469;49.024;8.246;2024-02-16T05:28:19;14.90;;;5.80;;
22603;SDS011;11469;49.024;8.246;2024-02-16T05:30:45;15.43;;;6.22;;
22603;SDS011;11469;49.024;8.246;2024-02-16T05:33:10;12.82;;;6.28;;
22603;SDS011;11469;49.024;8.246;2024-02-16T05:35:36;11.40;;;6.15;;
22603;SDS011;11469;49.024;8.246;2024-02-16T05:38:05;22.23;;;7.55;;
22603;SDS011;11469;49.024;8.246;2024-02-16T05:40:32;16.65;;;7.47;;
22603;SDS011;11469;49.024;8.246;2024-02-16T05:43:09;20.05;;;10.88;;
22603;SDS011;11469;49.024;8.246;2024-02-16T05:45:34;20.60;;;9.18;;
22603;SDS011;11469;49.024;8.246;2024-02-16T05:48:00;21.17;;;7.60;;
22603;SDS011;11469;49.024;8.246;2024-02-16T05:50:26;16.27;;;7.82;;
22603;SDS011;11469;49.024;8.246;2024-02-16T05:52:51;18.17;;;9.68;;
22603;SDS011;11469;49.024;8.246;2024-02-16T05:55:17;23.48;;;11.82;;
22603;SDS011;11469;49.024;8.246;2024-02-16T05:57:44;29.00;;;11.73;;
22603;SDS011;11469;49.024;8.246;2024-02-16T06:00:09;23.58;;;11.38;;
22603;SDS011;11469;49.024;8.246;2024-02-16T06:02:35;27.80;;;11.15;;
22603;SDS011;11469;49.024;8.246;2024-02-16T06:05:02;21.77;;;10.68;;
22603;SDS011;11469;49.024;8.246;2024-02-16T06:07:28;18.88;;;10.60;;
22603;SDS011;11469;49.024;8.246;2024-02-16T06:09:56;21.73;;;10.85;;
22603;SDS011;11469;49.024;8.246;2024-02-16T06:12:22;23.52;;;10.90;;
22603;SDS011;11469;49.024;8.246;2024-02-16T06:14:47;25.52;;;9.95;;
22603;SDS011;11469;49.024;8.246;2024-02-16T06:17:18;20.85;;;10.50;;
22603;SDS011;11469;49.024;8.246;2024-02-16T06:19:43;16.25;;;8.55;;
22603;SDS011;11469;49.024;8.246;2024-02-16T06:22:09;18.17;;;8.93;;
22603;SDS011;11469;49.024;8.246;2024-02-16T06:24:35;16.25;;;7.90;;
22603;SDS011;11469;49.024;8.246;2024-02-16T06:27:01;25.30;;;8.38;;
22603;SDS011;11469;49.024;8.246;2024-02-16T06:29:27;21.85;;;9.20;;
22603;SDS011;11469;49.024;8.246;2024-02-16T06:31:53;18.95;;;8.35;;
22603;SDS011;11469;49.024;8.246;2024-02-16T06:34:18;17.17;;;8.32;;
22603;SDS011;11469;49.024;8.246;2024-02-16T06:36:44;14.98;;;8.43;;
22603;SDS011;11469;49.024;8.246;2024-02-16T06:39:10;16.33;;;8.63;;
22603;SDS011;11469;49.024;8.246;2024-02-16T06:41:36;17.85;;;7.93;;
22603;SDS011;11469;49.024;8.246;2024-02-16T06:44:02;23.77;;;9.13;;
22603;SDS011;11469;49.024;8.246;2024-02-16T06:46:29;16.55;;;8.65;;
22603;SDS011;11469;49.024;8.246;2024-02-16T06:48:55;15.80;;;8.48;;
22603;SDS011;11469;49.024;8.246;2024-02-16T06:51:24;15.82;;;7.97;;
22603;SDS011;11469;49.024;8.246;2024-02-16T06:53:51;22.23;;;8.00;;
22603;SDS011;11469;49.024;8.246;2024-02-16T06:56:16;17.90;;;7.63;;
22603;SDS011;11469;49.024;8.246;2024-02-16T06:58:43;14.48;;;8.40;;
22603;SDS011;11469;49.024;8.246;2024-02-16T07:01:09;17.45;;;7.72;;
22603;SDS011;11469;49.024;8.246;2024-02-16T07:03:34;15.15;;;8.40;;
22603;SDS011;11469;49.024;8.246;2024-02-16T07:06:02;13.30;;;7.65;;
22603;SDS011;11469;49.024;8.246;2024-02-16T07:08:28;14.82;;;7.43;;
22603;SDS011;11469;49.024;8.246;2024-02-16T07:10:53;13.35;;;8.15;;
22603;SDS011;11469;49.024;8.246;2024-02-16T07:13:19;17.25;;;8.57;;
22603;SDS011;11469;49.024;8.246;2024-02-16T07:15:44;21.52;;;9.07;;
22603;SDS011;11469;49.024;8.246;2024-02-16T07:18:10;17.42;;;9.43;;
22603;SDS011;11469;49.024;8.246;2024-02-16T07:20:36;23.38;;;10.27;;
22603;SDS011;11469;49.024;8.246;2024-02-16T07:23:02;21.60;;;10.50;;
22603;SDS011;11469;49.024;8.246;2024-02-16T07:25:28;25.80;;;11.00;;
22603;SDS011;11469;49.024;8.246;2024-02-16T07:27:53;24.30;;;10.15;;
22603;SDS011;11469;49.024;8.246;2024-02-16T07:30:19;27.13;;;10.13;;
22603;SDS011;11469;49.024;8.246;2024-02-16T07:32:48;26.08;;;10.77;;
22603;SDS011;11469;49.024;8.246;2024-02-16T07:35:15;22.58;;;10.45;;
22603;SDS011;11469;49.024;8.246;2024-02-16T07:37:40;18.70;;;9.15;;
22603;SDS011;11469;49.024;8.246;2024-02-16T07:40:07;20.15;;;9.55;;
22603;SDS011;11469;49.024;8.246;2024-02-16T07:42:37;20.98;;;9.52;;
22603;SDS011;11469;49.024;8.246;2024-02-16T07:45:07;22.38;;;8.95;;
22603;SDS011;11469;49.024;8.246;2024-02-16T07:47:34;17.20;;;9.02;;
22603;SDS011;11469;49.024;8.246;2024-02-16T07:50:00;19.45;;;8.77;;
22603;SDS011;11469;49.024;8.246;2024-02-16T07:52:25;20.30;;;9.13;;
22603;SDS011;11469;49.024;8.246;2024-02-16T07:54:50;21.60;;;10.13;;
22603;SDS011;11469;49.024;8.246;2024-02-16T07:57:16;15.75;;;9.55;;
22603;SDS011;11469;49.024;8.246;2024-02-16T07:59:42;16.42;;;9.55;;
22603;SDS011;11469;49.024;8.246;2024-02-16T08:02:08;20.45;;;10.63;;
22603;SDS011;11469;49.024;8.246;2024-02-16T08:04:34;21.67;;;10.02;;
22603;SDS011;11469;49.024;8.246;2024-02-16T08:07:00;19.23;;;9.77;;
22603;SDS011;11469;49.024;8.246;2024-02-16T08:09:26;16.70;;;8.77;;
22603;SDS011;11469;49.024;8.246;2024-02-16T08:11:52;18.73;;;8.35;;
22603;SDS011;11469;49.024;8.246;2024-02-16T08:14:17;16.50;;;8.48;;
22603;SDS011;11469;49.024;8.246;2024-02-16T08:16:43;20.35;;;9.85;;
22603;SDS011;11469;49.024;8.246;2024-02-16T08:19:08;18.80;;;9.05;;
22603;SDS011;11469;49.024;8.246;2024-02-16T08:21:34;23.27;;;9.30;;
22603;SDS011;11469;49.024;8.246;2024-02-16T08:23:59;19.10;;;9.18;;
22603;SDS011;11469;49.024;8.246;2024-02-16T08:26:26;17.67;;;9.60;;
22603;SDS011;11469;49.024;8.246;2024-02-16T08:28:52;18.23;;;9.32;;
22603;SDS011;11469;49.024;8.246;2024-02-16T08:31:18;15.20;;;9.07;;
22603;SDS011;11469;49.024;8.246;2024-02-16T08:33:44;20.05;;;9.13;;
22603;SDS011;11469;49.024;8.246;2024-02-16T08:36:10;18.92;;;9.15;;
22603;SDS011;11469;49.024;8.246;2024-02-16T08:38:39;15.32;;;8.52;;
22603;SDS011;11469;49.024;8.246;2024-02-16T08:41:04;21.10;;;8.50;;
22603;SDS011;11469;49.024;8.246;2024-02-16T08:43:30;15.90;;;7.68;;
22603;SDS011;11469;49.024;8.246;2024-02-16T08:45:56;18.17;;;8.10;;
22603;SDS011;11469;49.024;8.246;2024-02-16T08:48:22;20.50;;;8.07;;
22603;SDS011;11469;49.024;8.246;2024-02-16T08:50:49;16.30;;;7.05;;
22603;SDS011;11469;49.024;8.246;2024-02-16T08:53:15;12.18;;;6.75;;
22603;SDS011;11469;49.024;8.246;2024-02-16T08:55:42;17.75;;;7.20;;
22603;SDS011;11469;49.024;8.246;2024-02-16T08:58:08;11.70;;;6.47;;
22603;SDS011;11469;49.024;8.246;2024-02-16T09:00:33;13.88;;;6.63;;
22603;SDS011;11469;49.024;8.246;2024-02-16T09:02:59;13.50;;;5.85;;
22603;SDS011;11469;49.024;8.246;2024-02-16T09:05:27;15.90;;;6.68;;
22603;SDS011;11469;49.024;8.246;2024-02-16T09:07:54;16.27;;;6.38;;
22603;SDS011;11469;49.024;8.246;2024-02-16T09:10:19;12.57;;;6.30;;
22603;SDS011;11469;49.024;8.246;2024-02-16T09:12:45;14.07;;;6.28;;
22603;SDS011;11469;49.024;8.246;2024-02-16T09:15:11;12.52;;;6.20;;
22603;SDS011;11469;49.024;8.246;2024-02-16T09:17:37;13.43;;;6.20;;
22603;SDS011;11469;49.024;8.246;2024-02-16T09:20:03;13.30;;;6.35;;
22603;SDS011;11469;49.024;8.246;2024-02-16T09:22:29;15.25;;;6.50;;
22603;SDS011;11469;49.024;8.246;2024-02-16T09:24:55;15.25;;;5.88;;
22603;SDS011;11469;49.024;8.246;2024-02-16T09:27:24;11.98;;;6.28;;
22603;SDS011;11469;49.024;8.246;2024-02-16T09:29:50;12.07;;;6.35;;
22603;SDS011;11469;49.024;8.246;2024-02-16T09:32:16;10.38;;;5.65;;
22603;SDS011;11469;49.024;8.246;2024-02-16T09:34:41;13.90;;;6.32;;
22603;SDS011;11469;49.024;8.246;2024-02-16T09:37:07;17.23;;;6.10;;
22603;SDS011;11469;49.024;8.246;2024-02-16T09:39:32;10.98;;;5.47;;
22603;SDS011;11469;49.024;8.246;2024-02-16T09:41:59;10.70;;;5.38;;
22603;SDS011;11469;49.024;8.246;2024-02-16T09:44:25;10.82;;;5.65;;
22603;SDS011;11469;49.024;8.246;2024-02-16T09:46:53;13.65;;;6.05;;
22603;SDS011;11469;49.024;8.246;2024-02-16T09:49:19;11.95;;;6.30;;
22603;SDS011;11469;49.024;8.246;2024-02-16T09:51:45;9.35;;;5.18;;
22603;SDS011;11469;49.024;8.246;2024-02-16T09:54:10;9.65;;;4.75;;
22603;SDS011;11469;49.024;8.246;2024-02-16T09:56:36;10.43;;;5.15;;
22603;SDS011;11469;49.024;8.246;2024-02-16T09:59:02;12.82;;;5.30;;
22603;SDS011;11469;49.024;8.246;2024-02-16T10:01:28;13.05;;;4.65;;
22603;SDS011;11469;49.024;8.246;2024-02-16T10:03:55;15.65;;;5.97;;
22603;SDS011;11469;49.024;8.246;2024-02-16T10:06:30;14.23;;;5.90;;
22603;SDS011;11469;49.024;8.246;2024-02-16T10:08:55;11.25;;;4.97;;
22603;SDS011;11469;49.024;8.246;2024-02-16T10:11:25;15.40;;;4.75;;
22603;SDS011;11469;49.024;8.246;2024-02-16T10:16:24;12.50;;;4.50;;
22603;SDS011;11469;49.024;8.246;2024-02-16T10:18:50;12.43;;;5.03;;
22603;SDS011;11469;49.024;8.246;2024-02-16T10:21:28;12.43;;;4.60;;
22603;SDS011;11469;49.024;8.246;2024-02-16T10:23:59;11.55;;;4.45;;
22603;SDS011;11469;49.024;8.246;2024-02-16T10:26:27;11.63;;;4.10;;
22603;SDS011;11469;49.024;8.246;2024-02-16T10:28:54;11.60;;;3.83;;
22603;SDS011;11469;49.024;8.246;2024-02-16T10:31:22;12.13;;;4.18;;
22603;SDS011;11469;49.024;8.246;2024-02-16T10:33:57;8.90;;;3.38;;
22603;SDS011;11469;49.024;8.246;2024-02-16T10:36:24;6.60;;;3.08;;
22603;SDS011;11469;49.024;8.246;2024-02-16T10:38:53;10.38;;;3.75;;
22603;SDS011;11469;49.024;8.246;2024-02-16T10:41:22;8.25;;;3.63;;
22603;SDS011;11469;49.024;8.246;2024-02-16T10:43:51;14.90;;;3.85;;
22603;SDS011;11469;49.024;8.246;2024-02-16T10:46:18;10.95;;;3.70;;
22603;SDS011;11469;49.024;8.246;2024-02-16T10:48:45;8.40;;;3.17;;
22603;SDS011;11469;49.024;8.246;2024-02-16T10:51:10;13.27;;;4.65;;
22603;SDS011;11469;49.024;8.246;2024-02-16T10:53:38;14.73;;;4.43;;
22603;SDS011;11469;49.024;8.246;2024-02-16T10:56:06;16.05;;;3.90;;
22603;SDS011;11469;49.024;8.246;2024-02-16T10:58:32;12.88;;;3.65;;
22603;SDS011;11469;49.024;8.246;2024-02-16T11:01:07;15.73;;;3.95;;
22603;SDS011;11469;49.024;8.246;2024-02-16T11:03:37;9.90;;;3.42;;
22603;SDS011;11469;49.024;8.246;2024-02-16T11:06:11;6.00;;;3.22;;
22603;SDS011;11469;49.024;8.246;2024-02-16T11:08:39;6.97;;;3.10;;
22603;SDS011;11469;49.024;8.246;2024-02-16T11:11:05;8.48;;;2.85;;
22603;SDS011;11469;49.024;8.246;2024-02-16T11:13:33;7.07;;;3.03;;
22603;SDS011;11469;49.024;8.246;2024-02-16T11:16:00;8.75;;;3.60;;
22603;SDS011;11469;49.024;8.246;2024-02-16T11:18:31;8.13;;;3.38;;
22603;SDS011;11469;49.024;8.246;2024-02-16T11:21:01;7.45;;;3.67;;
22603;SDS011;11469;49.024;8.246;2024-02-16T11:23:28;10.65;;;3.17;;
22603;SDS011;11469;49.024;8.246;2024-02-16T11:26:00;12.10;;;3.10;;
22603;SDS011;11469;49.024;8.246;2024-02-16T11:28:32;12.38;;;2.55;;
22603;SDS011;11469;49.024;8.246;2024-02-16T11:30:59;8.32;;;2.97;;
22603;SDS011;11469;49.024;8.246;2024-02-16T11:33:25;8.80;;;3.10;;
22603;SDS011;11469;49.024;8.246;2024-02-16T11:35:56;9.50;;;3.17;;
22603;SDS011;11469;49.024;8.246;2024-02-16T11:38:22;6.50;;;2.78;;
22603;SDS011;11469;49.024;8.246;2024-02-16T11:40:55;7.97;;;2.90;;
22603;SDS011;11469;49.024;8.246;2024-02-16T11:43:28;7.95;;;2.28;;
22603;SDS011;11469;49.024;8.246;2024-02-16T11:45:54;6.25;;;2.70;;
22603;SDS011;11469;49.024;8.246;2024-02-16T11:48:23;14.18;;;3.20;;
22603;SDS011;11469;49.024;8.246;2024-02-16T11:51:00;10.77;;;2.90;;
22603;SDS011;11469;49.024;8.246;2024-02-16T11:53:28;9.13;;;2.70;;
22603;SDS011;11469;49.024;8.246;2024-02-16T11:55:55;7.32;;;2.70;;
22603;SDS011;11469;49.024;8.246;2024-02-16T11:58:20;8.98;;;2.30;;
22603;SDS011;11469;49.024;8.246;2024-02-16T12:00:47;9.65;;;2.35;;
22603;SDS011;11469;49.024;8.246;2024-02-16T12:03:20;7.43;;;2.20;;
22603;SDS011;11469;49.024;8.246;2024-02-16T12:06:05;7.57;;;2.22;;
22603;SDS011;11469;49.024;8.246;2024-02-16T12:08:31;13.85;;;2.35;;
22603;SDS011;11469;49.024;8.246;2024-02-16T12:10:58;7.38;;;2.20;;
22603;SDS011;11469;49.024;8.246;2024-02-16T12:13:24;7.40;;;2.30;;
22603;SDS011;11469;49.024;8.246;2024-02-16T12:15:50;10.15;;;2.47;;
22603;SDS011;11469;49.024;8.246;2024-02-16T12:18:25;13.45;;;2.33;;
22603;SDS011;11469;49.024;8.246;2024-02-16T12:23:35;8.05;;;2.38;;
22603;SDS011;11469;49.024;8.246;2024-02-16T12:26:01;7.93;;;2.60;;
22603;SDS011;11469;49.024;8.246;2024-02-16T12:28:28;7.03;;;2.17;;
22603;SDS011;11469;49.024;8.246;2024-02-16T12:30:58;6.72;;;1.98;;
22603;SDS011;11469;49.024;8.246;2024-02-16T12:33:24;8.88;;;2.25;;
22603;SDS011;11469;49.024;8.246;2024-02-16T12:35:50;7.03;;;2.22;;
22603;SDS011;11469;49.024;8.246;2024-02-16T12:38:16;7.55;;;2.20;;
22603;SDS011;11469;49.024;8.246;2024-02-16T12:40:44;7.05;;;2.78;;
22603;SDS011;11469;49.024;8.246;2024-02-16T12:43:12;10.70;;;2.20;;
22603;SDS011;11469;49.024;8.246;2024-02-16T12:45:38;6.45;;;2.28;;
22603;SDS011;11469;49.024;8.246;2024-02-16T12:48:04;6.18;;;2.20;;
22603;SDS011;11469;49.024;8.246;2024-02-16T12:50:31;5.88;;;1.77;;
22603;SDS011;11469;49.024;8.246;2024-02-16T12:52:56;4.70;;;1.40;;
22603;SDS011;11469;49.024;8.246;2024-02-16T12:55:23;5.80;;;1.90;;
22603;SDS011;11469;49.024;8.246;2024-02-16T12:57:49;3.95;;;1.40;;
22603;SDS011;11469;49.024;8.246;2024-02-16T13:00:16;6.78;;;1.85;;
22603;SDS011;11469;49.024;8.246;2024-02-16T13:02:41;10.60;;;2.17;;
22603;SDS011;11469;49.024;8.246;2024-02-16T13:05:07;6.15;;;1.85;;
22603;SDS011;11469;49.024;8.246;2024-02-16T13:07:33;4.45;;;2.03;;
22603;SDS011;11469;49.024;8.246;2024-02-16T13:09:59;7.25;;;1.95;;
22603;SDS011;11469;49.024;8.246;2024-02-16T13:12:24;4.90;;;1.52;;
22603;SDS011;11469;49.024;8.246;2024-02-16T13:14:49;7.32;;;2.20;;
22603;SDS011;11469;49.024;8.246;2024-02-16T13:17:15;5.80;;;1.77;;
22603;SDS011;11469;49.024;8.246;2024-02-16T13:19:40;8.45;;;1.88;;
22603;SDS011;11469;49.024;8.246;2024-02-16T13:22:05;5.72;;;1.67;;
22603;SDS011;11469;49.024;8.246;2024-02-16T13:24:31;6.95;;;1.77;;
22603;SDS011;11469;49.024;8.246;2024-02-16T13:26:56;4.68;;;1.80;;
22603;SDS011;11469;49.024;8.246;2024-02-16T13:29:22;7.70;;;1.80;;
22603;SDS011;11469;49.024;8.246;2024-02-16T13:31:47;6.65;;;1.90;;
22603;SDS011;11469;49.024;8.246;2024-02-16T13:34:13;6.15;;;1.95;;
22603;SDS011;11469;49.024;8.246;2024-02-16T13:36:40;7.25;;;2.15;;
22603;SDS011;11469;49.024;8.246;2024-02-16T13:39:06;10.18;;;1.67;;
22603;SDS011;11469;49.024;8.246;2024-02-16T13:41:32;9.48;;;1.55;;
22603;SDS011;11469;49.024;8.246;2024-02-16T13:43:58;15.70;;;2.53;;
22603;SDS011;11469;49.024;8.246;2024-02-16T13:46:23;9.30;;;2.33;;
22603;SDS011;11469;49.024;8.246;2024-02-16T13:48:49;7.75;;;1.77;;
22603;SDS011;11469;49.024;8.246;2024-02-16T13:51:14;11.50;;;2.05;;
22603;SDS011;11469;49.024;8.246;2024-02-16T13:53:40;9.80;;;1.73;;
22603;SDS011;11469;49.024;8.246;2024-02-16T13:56:05;10.02;;;1.48;;
22603;SDS011;11469;49.024;8.246;2024-02-16T13:58:31;8.48;;;1.55;;
22603;SDS011;11469;49.024;8.246;2024-02-16T14:00:57;5.85;;;1.92;;
22603;SDS011;11469;49.024;8.246;2024-02-16T14:03:23;8.73;;;1.83;;
22603;SDS011;11469;49.024;8.246;2024-02-16T14:05:49;4.80;;;1.55;;
22603;SDS011;11469;49.024;8.246;2024-02-16T14:08:15;4.07;;;1.58;;
22603;SDS011;11469;49.024;8.246;2024-02-16T14:10:42;6.55;;;1.50;;
22603;SDS011;11469;49.024;8.246;2024-02-16T14:13:07;7.38;;;1.38;;
22603;SDS011;11469;49.024;8.246;2024-02-16T14:15:34;3.58;;;1.48;;
22603;SDS011;11469;49.024;8.246;2024-02-16T14:17:59;2.78;;;1.27;;
22603;SDS011;11469;49.024;8.246;2024-02-16T14:20:25;5.47;;;1.75;;
22603;SDS011;11469;49.024;8.246;2024-02-16T14:22:51;6.95;;;1.50;;
22603;SDS011;11469;49.024;8.246;2024-02-16T14:25:16;5.10;;;1.90;;
22603;SDS011;11469;49.024;8.246;2024-02-16T14:27:43;4.18;;;1.55;;
22603;SDS011;11469;49.024;8.246;2024-02-16T14:30:10;6.13;;;1.65;;
22603;SDS011;11469;49.024;8.246;2024-02-16T14:32:38;2.97;;;1.65;;
22603;SDS011;11469;49.024;8.246;2024-02-16T14:35:04;5.45;;;1.50;;
22603;SDS011;11469;49.024;8.246;2024-02-16T14:37:32;5.15;;;1.52;;
22603;SDS011;11469;49.024;8.246;2024-02-16T14:39:58;4.65;;;1.70;;